Time;durP1;ratioP1;P1;durP2;ratioP2;P2;SDS_P1;SDS_P2;PMS_P1;PMS_P2;Temp;Humidity;BMP_temperature;BMP_pressure;BME280_temperature;BME280_humidity;BME280_pressure;Samples;Min_cycle;Max_cycle;Signal;HPM_P1;HPM_P2
2022/02/24 00:01:48;;;;;;;5.07;4.23;;;7.90;99.90;;;;;;10421169;28;20239;-86
2022/02/24 00:06:53;;;;;;;4.90;4.50;;;7.90;99.90;;;;;;10414626;28;20237;-85
2022/02/24 00:11:57;;;;;;;4.83;4.43;;;7.90;99.90;;;;;;10424939;28;20208;-85
2022/02/24 00:17:01;;;;;;;4.90;4.03;;;7.80;99.90;;;;;;10417045;28;20225;-86
2022/02/24 00:22:04;;;;;;;5.93;4.43;;;7.80;99.90;;;;;;10407775;28;20337;-85
2022/02/24 00:27:06;;;;;;;5.20;4.70;;;7.90;99.90;;;;;;10389225;28;20239;-85
2022/02/24 00:32:10;;;;;;;4.37;3.90;;;7.90;99.90;;;;;;10422194;28;20239;-85
2022/02/24 00:37:13;;;;;;;4.50;4.00;;;8.00;99.90;;;;;;10387334;28;20229;-85
2022/02/24 00:42:15;;;;;;;3.83;3.60;;;8.20;99.90;;;;;;10417088;28;20189;-86
2022/02/24 00:47:18;;;;;;;3.80;3.50;;;8.20;99.90;;;;;;10418968;28;20221;-83
2022/02/24 00:52:20;;;;;;;3.17;2.93;;;8.30;99.90;;;;;;10419449;28;20202;-85
2022/02/24 00:57:23;;;;;;;3.83;3.53;;;8.30;99.90;;;;;;10432444;28;20275;-84
2022/02/24 01:02:26;;;;;;;3.50;3.30;;;8.50;99.90;;;;;;10449394;28;20220;-85
2022/02/24 01:07:28;;;;;;;3.67;3.37;;;8.60;99.90;;;;;;10415954;28;20221;-85
2022/02/24 01:12:31;;;;;;;3.60;3.30;;;8.60;99.90;;;;;;10410341;28;20202;-86
2022/02/24 01:17:34;;;;;;;3.90;3.60;;;8.70;99.90;;;;;;10429993;28;20221;-84
2022/02/24 01:22:37;;;;;;;4.27;3.23;;;8.80;99.90;;;;;;10404402;28;20244;-84
2022/02/24 01:27:42;;;;;;;6.93;3.60;;;8.90;99.90;;;;;;10406104;28;20232;-87
2022/02/24 01:32:45;;;;;;;3.93;3.50;;;8.90;99.90;;;;;;10413697;28;20205;-86
2022/02/24 01:37:48;;;;;;;3.93;3.17;;;9.00;99.90;;;;;;10435912;28;20218;-85
2022/02/24 01:42:50;;;;;;;4.57;3.70;;;8.90;99.90;;;;;;10435447;28;20228;-85
2022/02/24 01:47:55;;;;;;;3.20;3.00;;;9.00;99.90;;;;;;10426271;28;20249;-85
2022/02/24 01:52:57;;;;;;;3.77;3.40;;;8.90;99.90;;;;;;10403740;28;20206;-85
2022/02/24 01:58:00;;;;;;;3.77;3.47;;;9.00;99.90;;;;;;10428524;28;20221;-85
2022/02/24 02:03:04;;;;;;;3.90;3.47;;;8.90;99.90;;;;;;10414445;28;20315;-85
2022/02/24 02:08:07;;;;;;;5.10;3.73;;;8.90;99.90;;;;;;10411266;28;20665;-85
2022/02/24 02:13:09;;;;;;;5.07;2.80;;;8.80;99.90;;;;;;10425583;28;20197;-86
2022/02/24 02:18:12;;;;;;;3.73;3.33;;;8.80;99.90;;;;;;10426783;28;20218;-86
2022/02/24 02:23:19;;;;;;;3.37;3.10;;;8.70;99.90;;;;;;10406089;28;20632;-86
2022/02/24 02:28:30;;;;;;;2.97;2.60;;;8.40;99.90;;;;;;10438184;22;20221;-82
2022/02/24 02:33:56;;;;;;;4.07;3.43;;;8.40;99.90;;;;;;10432568;28;20186;-82
2022/02/24 02:39:13;;;;;;;3.00;2.80;;;8.30;99.90;;;;;;10386739;28;20217;-82
2022/02/24 02:44:28;;;;;;;3.87;3.53;;;8.30;99.90;;;;;;10414593;28;20740;-82
2022/02/24 02:49:38;;;;;;;3.13;2.93;;;8.20;99.90;;;;;;10410498;28;20198;-82
2022/02/24 02:54:48;;;;;;;4.23;3.57;;;8.30;99.90;;;;;;10414875;28;20205;-83
2022/02/24 02:59:50;;;;;;;5.00;3.87;;;8.30;99.90;;;;;;10380681;28;20718;-83
2022/02/24 03:04:54;;;;;;;4.50;3.47;;;8.40;99.90;;;;;;10397329;28;21447;-82
2022/02/24 03:09:57;;;;;;;7.10;4.27;;;8.50;99.90;;;;;;10399015;28;20202;-82
2022/02/24 03:14:59;;;;;;;4.07;3.77;;;8.60;99.90;;;;;;10383492;28;20309;-83
2022/02/24 03:20:01;;;;;;;3.60;3.30;;;8.70;99.90;;;;;;10399459;28;20198;-83
2022/02/24 03:25:06;;;;;;;5.57;4.20;;;8.70;99.90;;;;;;10377103;28;20575;-82
2022/02/24 03:30:09;;;;;;;4.20;3.90;;;8.80;99.90;;;;;;10389988;28;20744;-82
2022/02/24 03:35:20;;;;;;;5.93;3.83;;;8.80;99.90;;;;;;10406549;28;20218;-82
2022/02/24 03:40:28;;;;;;;4.03;3.73;;;8.80;99.90;;;;;;10375238;28;20201;-83
2022/02/24 03:45:41;;;;;;;3.50;3.20;;;8.90;99.90;;;;;;10414364;28;20257;-82
2022/02/24 03:50:46;;;;;;;4.33;3.80;;;8.90;99.90;;;;;;10384038;28;20229;-82
2022/02/24 03:55:52;;;;;;;4.47;3.40;;;8.90;99.90;;;;;;10396774;28;20220;-82
2022/02/24 04:01:04;;;;;;;3.30;3.00;;;9.00;99.90;;;;;;10397495;28;20194;-82
2022/02/24 04:06:21;;;;;;;3.60;3.30;;;9.10;99.90;;;;;;10375570;28;20260;-82
2022/02/24 04:11:33;;;;;;;4.03;3.60;;;9.10;99.90;;;;;;10390762;28;20205;-82
2022/02/24 04:16:43;;;;;;;3.60;3.03;;;9.20;99.90;;;;;;10417580;28;20241;-83
2022/02/24 04:21:45;;;;;;;3.40;3.10;;;9.20;99.90;;;;;;10406398;28;20202;-82
2022/02/24 04:27:27;;;;;;;;;;;;;;;;;;;;;
2022/02/24 04:32:42;;;;;;;4.13;3.70;;;9.10;99.90;;;;;;10399825;28;20205;-82
2022/02/24 04:38:02;;;;;;;4.60;3.70;;;9.10;99.90;;;;;;10387457;28;20214;-83
2022/02/24 04:48:49;;;;;;;6.43;3.57;;;9.00;99.90;;;;;;10468761;22;20692;-81
2022/02/24 04:53:54;;;;;;;4.63;3.97;;;9.00;99.90;;;;;;10439759;28;20266;-83
2022/02/24 04:59:14;;;;;;;3.83;3.53;;;9.00;99.90;;;;;;10448753;28;20312;-82
2022/02/24 05:04:25;;;;;;;4.80;4.40;;;9.00;99.90;;;;;;10437555;28;20259;-82
2022/02/24 05:15:00;;;;;;;4.93;4.23;;;9.10;99.90;;;;;;10424386;28;20727;-82
2022/02/24 05:20:10;;;;;;;4.30;3.90;;;9.10;99.90;;;;;;10424166;28;20233;-82
2022/02/24 05:25:14;;;;;;;7.03;4.10;;;9.10;99.90;;;;;;10438362;28;20315;-82
2022/02/24 05:30:17;;;;;;;4.97;4.13;;;9.00;99.90;;;;;;10452820;28;20240;-82
2022/02/24 05:35:19;;;;;;;5.60;4.80;;;9.00;99.90;;;;;;10455591;28;20217;-82
2022/02/24 05:40:21;;;;;;;8.33;4.60;;;8.90;99.90;;;;;;10443159;28;20583;-82
2022/02/24 05:45:25;;;;;;;4.77;4.40;;;8.90;99.90;;;;;;10453642;28;20229;-82
2022/02/24 05:50:32;;;;;;;6.23;5.60;;;8.90;99.90;;;;;;10433448;28;20292;-82
2022/02/24 05:55:35;;;;;;;7.13;5.30;;;8.80;99.90;;;;;;10440157;28;20252;-83
2022/02/24 06:00:40;;;;;;;6.10;5.50;;;8.80;99.90;;;;;;10450934;28;20205;-82
2022/02/24 06:05:42;;;;;;;6.50;5.90;;;8.80;99.90;;;;;;10435405;28;20705;-81
2022/02/24 06:10:44;;;;;;;6.77;6.17;;;8.80;99.90;;;;;;10443363;28;20210;-80
2022/02/24 06:15:48;;;;;;;6.40;5.90;;;8.80;99.90;;;;;;10446121;28;20221;-80
2022/02/24 06:20:50;;;;;;;6.27;5.67;;;8.70;99.90;;;;;;10436226;28;20204;-80
2022/02/24 06:25:52;;;;;;;6.63;6.00;;;8.70;99.90;;;;;;10422667;28;20287;-81
2022/02/24 06:30:55;;;;;;;5.70;5.20;;;8.70;99.90;;;;;;10424588;28;20657;-81
2022/02/24 06:36:03;;;;;;;8.60;6.80;;;8.70;99.90;;;;;;10438392;28;20705;-82
2022/02/24 06:41:05;;;;;;;7.37;6.43;;;8.70;99.90;;;;;;10427989;28;20209;-82
2022/02/24 06:46:09;;;;;;;7.03;6.33;;;8.70;99.90;;;;;;10446056;28;20656;-81
2022/02/24 06:51:11;;;;;;;7.37;6.50;;;8.70;99.90;;;;;;10386819;28;20204;-83
2022/02/24 06:56:13;;;;;;;10.13;7.00;;;8.70;99.90;;;;;;10438337;28;20217;-81
2022/02/24 07:01:17;;;;;;;7.47;6.87;;;8.70;99.90;;;;;;10422146;28;20247;-81
2022/02/24 07:06:19;;;;;;;8.10;6.53;;;8.70;99.90;;;;;;10416115;28;20581;-83
2022/02/24 07:11:23;;;;;;;7.87;6.50;;;8.80;99.90;;;;;;10412847;28;20202;-81
2022/02/24 07:16:26;;;;;;;6.87;6.27;;;8.80;99.90;;;;;;10407980;28;20218;-81
2022/02/24 07:21:28;;;;;;;10.70;8.57;;;8.90;99.90;;;;;;10410330;28;20209;-81
2022/02/24 07:26:31;;;;;;;8.67;7.20;;;9.00;99.90;;;;;;10441654;28;20229;-81
2022/02/24 07:31:34;;;;;;;6.70;6.10;;;9.10;99.90;;;;;;10440608;28;20221;-81
2022/02/24 07:36:39;;;;;;;6.07;5.57;;;9.20;99.90;;;;;;10465706;28;20311;-81
2022/02/24 07:41:43;;;;;;;6.70;6.10;;;9.20;99.90;;;;;;10447667;28;20511;-81
2022/02/24 07:46:47;;;;;;;10.33;7.40;;;9.30;99.90;;;;;;10429040;28;20221;-82
2022/02/24 07:51:51;;;;;;;7.40;6.57;;;9.40;99.90;;;;;;10436629;28;20205;-81
2022/02/24 07:56:53;;;;;;;7.53;6.73;;;9.50;99.90;;;;;;10435049;28;20218;-81
2022/02/24 08:01:57;;;;;;;5.87;5.27;;;9.60;99.90;;;;;;10420461;28;20266;-81
2022/02/24 08:06:59;;;;;;;6.27;5.43;;;9.60;99.90;;;;;;10411254;28;20222;-81
2022/02/24 08:17:23;;;;;;;4.57;4.17;;;9.70;99.90;;;;;;10406599;28;20231;-81
2022/02/24 08:22:26;;;;;;;4.50;4.10;;;9.80;99.90;;;;;;10431894;28;20217;-81
2022/02/24 08:27:29;;;;;;;5.00;4.40;;;9.80;99.90;;;;;;10473016;22;20240;-79
2022/02/24 08:32:32;;;;;;;4.50;4.10;;;9.80;99.90;;;;;;10451841;28;20641;-79
2022/02/24 08:37:35;;;;;;;4.20;3.90;;;9.90;99.90;;;;;;10430139;28;20252;-80
2022/02/24 08:42:37;;;;;;;6.40;4.20;;;9.90;99.90;;;;;;10449723;28;20212;-79
2022/02/24 08:47:41;;;;;;;6.07;4.47;;;10.10;99.90;;;;;;10434658;28;20225;-79
2022/02/24 08:52:44;;;;;;;5.10;4.10;;;10.20;99.90;;;;;;10432008;28;20206;-78
2022/02/24 08:57:46;;;;;;;4.20;3.80;;;10.40;99.90;;;;;;10454672;28;20223;-79
2022/02/24 09:02:49;;;;;;;4.93;3.70;;;10.50;99.90;;;;;;10461219;28;20558;-80
2022/02/24 09:07:51;;;;;;;4.43;4.03;;;10.60;99.90;;;;;;10453980;28;20233;-79
2022/02/24 09:12:53;;;;;;;4.37;3.97;;;10.80;99.90;;;;;;10457290;28;20198;-79
2022/02/24 09:17:57;;;;;;;4.67;4.27;;;11.00;99.90;;;;;;10461472;28;20221;-79
2022/02/24 09:22:59;;;;;;;3.27;2.97;;;11.20;99.90;;;;;;10449812;28;20489;-79
2022/02/24 09:28:02;;;;;;;4.50;4.10;;;11.40;99.90;;;;;;10454213;28;20217;-78
2022/02/24 09:33:06;;;;;;;3.57;3.27;;;11.60;99.90;;;;;;10458100;28;20251;-79
2022/02/24 09:38:08;;;;;;;5.10;4.20;;;11.70;99.90;;;;;;10463730;28;20213;-79
2022/02/24 09:43:11;;;;;;;5.70;4.07;;;11.80;99.90;;;;;;10460096;28;20208;-79
2022/02/24 09:48:17;;;;;;;4.53;3.67;;;12.00;99.60;;;;;;10412704;28;20686;-79
2022/02/24 09:53:20;;;;;;;3.67;3.37;;;12.10;99.90;;;;;;10427249;28;20205;-79
2022/02/24 09:58:23;;;;;;;3.73;3.30;;;12.20;99.80;;;;;;10457536;28;20217;-79
2022/02/24 10:03:29;;;;;;;3.90;3.20;;;12.40;99.10;;;;;;10461117;28;20204;-80
2022/02/24 10:08:33;;;;;;;3.37;2.93;;;12.40;99.10;;;;;;10463575;28;20318;-81
2022/02/24 10:13:35;;;;;;;3.13;2.50;;;12.50;99.80;;;;;;10462437;28;20285;-80
2022/02/24 10:18:39;;;;;;;2.77;2.40;;;12.70;98.90;;;;;;10455494;28;20213;-81
2022/02/24 10:23:43;;;;;;;2.40;2.20;;;12.80;97.70;;;;;;10459618;28;20655;-81
2022/02/24 10:28:47;;;;;;;2.80;2.40;;;13.00;98.20;;;;;;10449448;28;20237;-82
2022/02/24 10:33:53;;;;;;;4.13;2.87;;;13.00;96.50;;;;;;10456527;28;20213;-81
2022/02/24 10:39:01;;;;;;;2.10;2.00;;;13.10;97.10;;;;;;10444556;28;20220;-81
2022/02/24 10:44:17;;;;;;;3.57;2.70;;;13.20;96.20;;;;;;10462052;28;20200;-82
2022/02/24 10:49:35;;;;;;;2.97;2.67;;;13.20;95.10;;;;;;10443281;28;20229;-81
2022/02/24 10:54:37;;;;;;;2.90;2.70;;;13.10;94.90;;;;;;10442238;28;20201;-81
2022/02/24 10:59:41;;;;;;;4.03;2.60;;;13.10;94.60;;;;;;10445867;28;20638;-82
2022/02/24 11:04:45;;;;;;;3.37;2.67;;;13.20;94.10;;;;;;10430078;28;20270;-81
2022/02/24 11:09:48;;;;;;;3.30;2.50;;;13.20;94.80;;;;;;10421941;28;20202;-81
2022/02/24 11:14:51;;;;;;;3.40;2.73;;;13.30;94.40;;;;;;10451782;28;20245;-81
2022/02/24 11:19:56;;;;;;;2.30;2.10;;;13.30;94.30;;;;;;10461018;28;20259;-81
2022/02/24 11:25:01;;;;;;;2.80;2.60;;;13.50;95.30;;;;;;10439630;28;20708;-80
2022/02/24 11:30:08;;;;;;;2.87;2.60;;;13.60;95.00;;;;;;10440960;28;20193;-81
2022/02/24 11:35:20;;;;;;;3.03;2.27;;;13.60;94.60;;;;;;10458348;28;20283;-80
2022/02/24 11:40:24;;;;;;;2.37;2.17;;;13.80;93.40;;;;;;10440007;28;20560;-81
2022/02/24 11:45:32;;;;;;;2.40;2.20;;;13.90;92.90;;;;;;10436221;28;20725;-82
2022/02/24 11:50:39;;;;;;;3.73;2.53;;;14.00;92.40;;;;;;10436821;28;20692;-81
2022/02/24 11:55:53;;;;;;;3.13;2.07;;;14.20;91.00;;;;;;10438505;28;20237;-81
2022/02/24 12:01:18;;;;;;;3.50;2.30;;;14.30;91.00;;;;;;10442836;28;20201;-81
2022/02/24 12:06:23;;;;;;;1.73;1.50;;;14.40;90.50;;;;;;10396595;28;20230;-81
2022/02/24 12:11:29;;;;;;;3.10;2.03;;;14.50;90.40;;;;;;10442294;28;20209;-80
2022/02/24 12:16:31;;;;;;;2.10;2.00;;;14.60;90.20;;;;;;10456218;28;20216;-79
2022/02/24 12:21:37;;;;;;;2.57;2.37;;;14.60;89.50;;;;;;10440926;28;20270;-79
2022/02/24 12:26:41;;;;;;;2.50;2.30;;;14.60;86.90;;;;;;10441000;28;20279;-80
2022/02/24 12:31:43;;;;;;;2.70;2.00;;;14.70;87.90;;;;;;10444372;28;20207;-80
2022/02/24 12:36:46;;;;;;;2.27;2.13;;;14.60;85.60;;;;;;10450056;28;20225;-81
2022/02/24 12:41:53;;;;;;;3.60;2.37;;;14.70;86.30;;;;;;10437555;28;20556;-81
2022/02/24 12:46:55;;;;;;;2.47;2.20;;;14.70;88.00;;;;;;10437126;28;20257;-81
2022/02/24 12:52:00;;;;;;;2.80;2.20;;;14.80;88.30;;;;;;10457485;28;20232;-81
2022/02/24 12:57:03;;;;;;;2.97;2.30;;;14.70;85.50;;;;;;10450810;28;20209;-81
2022/02/24 13:02:06;;;;;;;2.43;2.23;;;14.60;86.20;;;;;;10464523;28;20201;-81
2022/02/24 13:07:09;;;;;;;2.43;2.23;;;14.60;86.00;;;;;;10464927;28;20600;-81
2022/02/24 13:12:14;;;;;;;2.40;2.07;;;14.70;87.40;;;;;;10448747;28;20284;-82
2022/02/24 13:17:23;;;;;;;2.60;2.37;;;14.70;87.50;;;;;;10465755;28;20221;-82
2022/02/24 13:22:26;;;;;;;2.67;1.70;;;14.60;86.70;;;;;;10453608;28;20683;-82
2022/02/24 13:27:29;;;;;;;6.47;2.47;;;14.60;85.80;;;;;;10445707;28;20259;-82
2022/02/24 13:32:31;;;;;;;2.23;2.07;;;14.60;84.80;;;;;;10416713;28;20198;-80
2022/02/24 13:37:35;;;;;;;2.40;2.20;;;14.60;84.60;;;;;;10443505;28;20263;-79
2022/02/24 13:42:38;;;;;;;3.87;1.87;;;14.60;83.60;;;;;;10447361;28;20193;-79
2022/02/24 13:47:40;;;;;;;1.83;1.73;;;14.50;83.10;;;;;;10452423;28;20225;-80
2022/02/24 13:52:44;;;;;;;3.37;1.80;;;14.40;83.80;;;;;;10453401;28;20205;-81
2022/02/24 13:57:52;;;;;;;2.00;1.90;;;14.40;83.70;;;;;;10440864;28;20217;-81
2022/02/24 14:02:55;;;;;;;3.83;2.20;;;14.30;82.60;;;;;;10474182;28;20193;-81
2022/02/24 14:07:59;;;;;;;5.10;1.97;;;14.20;83.50;;;;;;10456106;28;20252;-79
2022/02/24 14:13:02;;;;;;;2.40;1.73;;;14.00;82.00;;;;;;10444224;28;20603;-79
2022/02/24 14:18:04;;;;;;;3.17;2.30;;;13.90;84.10;;;;;;10453019;28;20252;-79
2022/02/24 14:23:08;;;;;;;2.30;2.03;;;13.90;84.60;;;;;;10450460;28;20278;-79
2022/02/24 14:28:10;;;;;;;2.43;1.67;;;13.80;83.70;;;;;;10485374;22;20262;-84
2022/02/24 14:33:13;;;;;;;3.40;2.10;;;13.80;85.60;;;;;;10483041;28;20204;-84
2022/02/24 14:38:17;;;;;;;3.70;1.73;;;13.80;84.40;;;;;;10452361;28;20857;-84
2022/02/24 14:43:20;;;;;;;2.07;1.97;;;13.90;84.80;;;;;;10439666;28;20202;-84
2022/02/24 14:48:27;;;;;;;3.60;2.10;;;13.80;87.80;;;;;;10467173;28;20217;-84
2022/02/24 14:53:31;;;;;;;2.30;2.10;;;13.80;87.80;;;;;;10433694;28;20635;-85
2022/02/24 14:58:33;;;;;;;3.10;2.67;;;13.80;89.10;;;;;;10433694;28;20567;-84
2022/02/24 15:03:35;;;;;;;2.77;2.13;;;13.70;87.60;;;;;;10438883;28;20212;-84
2022/02/24 15:08:39;;;;;;;3.30;2.20;;;13.70;87.50;;;;;;10461288;28;20696;-84
2022/02/24 15:13:41;;;;;;;4.70;3.00;;;13.70;89.50;;;;;;10448967;28;20205;-84
2022/02/24 15:18:43;;;;;;;2.10;2.00;;;13.70;90.30;;;;;;10474956;28;20214;-84
2022/02/24 15:23:46;;;;;;;2.40;2.20;;;13.60;90.60;;;;;;10464544;28;20201;-84
2022/02/24 15:28:49;;;;;;;4.87;2.73;;;13.60;89.60;;;;;;10465791;28;20299;-84
2022/02/24 15:33:56;;;;;;;4.60;2.50;;;13.60;88.50;;;;;;10480980;28;20263;-84
2022/02/24 15:39:09;;;;;;;3.57;2.43;;;13.70;87.60;;;;;;10451565;28;20221;-84
2022/02/24 15:44:12;;;;;;;2.30;2.13;;;13.70;86.00;;;;;;10473606;28;20254;-84
2022/02/24 15:49:14;;;;;;;2.33;2.13;;;13.70;87.80;;;;;;10466965;28;20221;-84
2022/02/24 15:54:21;;;;;;;2.97;2.10;;;13.60;85.30;;;;;;10465356;28;20212;-85
2022/02/24 15:59:23;;;;;;;3.77;2.67;;;13.50;86.30;;;;;;10468538;28;20225;-85
2022/02/24 16:04:25;;;;;;;3.10;2.10;;;13.50;85.40;;;;;;10433260;28;20597;-83
2022/02/24 16:09:29;;;;;;;2.83;1.90;;;13.50;86.90;;;;;;10441332;28;20248;-85
2022/02/24 16:14:34;;;;;;;4.13;2.30;;;13.50;88.80;;;;;;10443103;28;20300;-86
2022/02/24 16:19:42;;;;;;;1.97;1.80;;;13.50;87.00;;;;;;10452895;28;20257;-84
2022/02/24 16:24:46;;;;;;;3.27;2.60;;;13.40;87.40;;;;;;10442227;28;20692;-83
2022/02/24 16:29:48;;;;;;;1.87;1.77;;;13.40;86.90;;;;;;10452339;28;20250;-84
2022/02/24 16:34:50;;;;;;;5.40;2.20;;;13.30;88.50;;;;;;10457121;28;20212;-84
2022/02/24 16:39:54;;;;;;;2.70;2.07;;;13.20;87.10;;;;;;10448875;28;20267;-83
2022/02/24 16:44:56;;;;;;;6.97;2.67;;;13.20;88.20;;;;;;10441173;28;20749;-83
2022/02/24 16:50:00;;;;;;;6.00;2.00;;;13.10;88.70;;;;;;10431831;28;20758;-85
2022/02/24 16:55:11;;;;;;;3.77;2.70;;;13.00;88.60;;;;;;10437127;28;20202;-85
2022/02/24 17:00:15;;;;;;;3.70;2.53;;;13.00;88.70;;;;;;10439886;28;20587;-84
2022/02/24 17:05:18;;;;;;;2.43;2.23;;;12.90;87.50;;;;;;10460081;28;20240;-84
2022/02/24 17:10:24;;;;;;;2.73;2.30;;;12.80;86.60;;;;;;10444953;28;20229;-84
2022/02/24 17:15:26;;;;;;;2.60;2.23;;;12.70;89.10;;;;;;10474090;28;20266;-84
2022/02/24 17:20:28;;;;;;;4.63;4.00;;;12.60;88.30;;;;;;10435012;28;20201;-84
2022/02/24 17:25:34;;;;;;;5.40;2.63;;;12.60;86.10;;;;;;10446566;28;20236;-84
2022/02/24 17:30:37;;;;;;;2.27;2.10;;;12.50;89.70;;;;;;10457545;28;20217;-84
2022/02/24 17:35:41;;;;;;;2.50;2.10;;;12.50;86.70;;;;;;10457261;28;20664;-85
2022/02/24 17:40:47;;;;;;;3.73;2.03;;;12.50;86.60;;;;;;10466212;28;20389;-86
2022/02/24 17:45:50;;;;;;;3.37;2.57;;;12.50;90.70;;;;;;10456867;28;20217;-85
2022/02/24 17:50:55;;;;;;;2.80;2.00;;;12.50;91.20;;;;;;10462813;28;20247;-85
2022/02/24 17:55:59;;;;;;;2.47;2.27;;;12.50;90.60;;;;;;10453611;28;20221;-85
2022/02/24 18:01:01;;;;;;;3.57;2.90;;;12.50;90.00;;;;;;10459528;28;20583;-85
2022/02/24 18:06:04;;;;;;;2.83;2.30;;;12.40;90.50;;;;;;10449054;28;20278;-84
2022/02/24 18:11:09;;;;;;;4.17;3.03;;;12.40;90.80;;;;;;10468289;28;20953;-84
2022/02/24 18:16:17;;;;;;;2.57;2.33;;;12.30;91.20;;;;;;10424963;28;20249;-84
2022/02/24 18:21:27;;;;;;;4.47;2.67;;;12.20;90.20;;;;;;10428198;28;20688;-84
2022/02/24 18:26:31;;;;;;;3.23;2.33;;;12.10;90.10;;;;;;10413969;28;20221;-83
2022/02/24 18:31:33;;;;;;;3.43;2.53;;;12.10;90.00;;;;;;10437624;28;20201;-84
2022/02/24 18:36:36;;;;;;;2.37;2.10;;;12.00;90.10;;;;;;10426233;28;20225;-83
2022/02/24 18:41:40;;;;;;;5.33;2.87;;;11.90;90.30;;;;;;10423898;28;20664;-84
2022/02/24 18:46:42;;;;;;;2.43;2.17;;;11.90;90.70;;;;;;10444000;28;20328;-84
2022/02/24 18:51:44;;;;;;;2.63;2.20;;;11.80;90.80;;;;;;10441398;28;20266;-83
2022/02/24 18:56:47;;;;;;;2.97;2.60;;;11.80;91.50;;;;;;10438016;28;20220;-83
2022/02/24 19:01:50;;;;;;;2.70;2.13;;;11.70;90.40;;;;;;10465627;28;20215;-85
2022/02/24 19:06:53;;;;;;;4.20;2.37;;;11.70;90.20;;;;;;10436291;28;20220;-84
2022/02/24 19:11:59;;;;;;;3.50;2.83;;;11.70;91.10;;;;;;10424796;28;20619;-83
2022/02/24 19:17:05;;;;;;;4.30;2.80;;;11.60;90.80;;;;;;10427484;28;20220;-84
2022/02/24 19:22:10;;;;;;;4.00;3.07;;;11.70;92.60;;;;;;10433010;28;20228;-84
2022/02/24 19:27:13;;;;;;;2.00;1.80;;;11.70;92.50;;;;;;10471797;28;20262;-84
2022/02/24 19:32:16;;;;;;;4.90;2.53;;;11.70;90.40;;;;;;10454334;28;20205;-86
2022/02/24 19:37:20;;;;;;;2.43;2.07;;;11.70;89.70;;;;;;10449491;28;20224;-84
2022/02/24 19:42:27;;;;;;;2.70;2.03;;;11.60;88.10;;;;;;10460242;28;20232;-84
2022/02/24 19:47:32;;;;;;;3.83;2.57;;;11.70;89.00;;;;;;10457649;28;20243;-86
2022/02/24 19:52:37;;;;;;;2.13;1.93;;;11.70;87.60;;;;;;10456639;28;20275;-86
2022/02/24 19:57:40;;;;;;;2.77;2.57;;;11.80;90.00;;;;;;10447615;28;20244;-85
2022/02/24 20:02:45;;;;;;;2.50;1.93;;;11.80;90.90;;;;;;10421295;28;20205;-85
2022/02/24 20:07:49;;;;;;;3.73;2.53;;;11.90;90.10;;;;;;10471111;28;20224;-85
2022/02/24 20:12:54;;;;;;;2.93;1.43;;;11.90;91.50;;;;;;10464028;28;20204;-84
2022/02/24 20:17:59;;;;;;;1.77;1.50;;;11.70;95.10;;;;;;10444631;28;20594;-84
2022/02/24 20:23:06;;;;;;;2.30;1.20;;;11.20;97.70;;;;;;10438359;28;20205;-84
2022/02/24 20:28:15;;;;;;;1.30;1.20;;;10.50;98.40;;;;;;10489649;22;20275;-79
2022/02/24 20:33:17;;;;;;;1.90;1.20;;;9.80;99.70;;;;;;10499990;28;20197;-79
2022/02/24 20:38:19;;;;;;;1.43;1.33;;;9.20;99.90;;;;;;10480477;28;20220;-80
2022/02/24 20:43:24;;;;;;;1.27;1.17;;;8.80;99.90;;;;;;10464464;28;20299;-81
2022/02/24 20:48:27;;;;;;;1.30;1.20;;;8.50;99.90;;;;;;10472921;28;20294;-79
2022/02/24 20:53:29;;;;;;;2.43;1.33;;;8.10;99.90;;;;;;10466480;28;20675;-79
2022/02/24 20:58:33;;;;;;;1.60;1.50;;;7.90;99.90;;;;;;10497269;28;20315;-80
2022/02/24 21:03:35;;;;;;;1.50;1.40;;;7.80;99.90;;;;;;10501946;28;20223;-80
2022/02/24 21:08:37;;;;;;;1.70;1.60;;;7.70;99.90;;;;;;10491218;28;20774;-80
2022/02/24 21:13:41;;;;;;;1.13;1.03;;;7.70;99.90;;;;;;10482070;28;20548;-80
2022/02/24 21:18:44;;;;;;;2.93;1.47;;;7.60;99.90;;;;;;10474541;28;20220;-80
2022/02/24 21:23:46;;;;;;;1.40;1.30;;;7.50;99.90;;;;;;10456121;28;20242;-80
2022/02/24 21:28:50;;;;;;;1.90;1.70;;;7.40;99.90;;;;;;10492872;28;20228;-80
2022/02/24 21:33:52;;;;;;;1.40;1.30;;;7.40;99.90;;;;;;10465448;28;20204;-80
2022/02/24 21:38:54;;;;;;;1.60;1.50;;;7.40;99.90;;;;;;10483392;28;20752;-80
2022/02/24 21:43:58;;;;;;;1.93;1.47;;;7.40;99.90;;;;;;10479849;28;20207;-80
2022/02/24 21:49:00;;;;;;;1.43;1.30;;;7.50;99.90;;;;;;10500823;28;20232;-80
2022/02/24 21:54:02;;;;;;;1.87;1.40;;;7.40;99.90;;;;;;10499710;28;20220;-80
2022/02/24 21:59:05;;;;;;;2.90;1.43;;;7.50;99.90;;;;;;10493385;28;20217;-78
2022/02/24 22:04:07;;;;;;;2.13;1.30;;;7.60;99.90;;;;;;10466543;28;20559;-80
2022/02/24 22:09:10;;;;;;;1.30;1.27;;;7.70;99.90;;;;;;10490597;28;20704;-79
2022/02/24 22:14:13;;;;;;;1.83;1.53;;;7.70;99.90;;;;;;10466167;28;20208;-79
2022/02/24 22:19:15;;;;;;;2.50;1.57;;;7.80;99.90;;;;;;10478339;28;20594;-80
2022/02/24 22:24:18;;;;;;;1.40;1.30;;;7.90;99.90;;;;;;10460812;28;20236;-81
2022/02/24 22:29:21;;;;;;;1.30;1.30;;;7.80;99.90;;;;;;10471685;28;20235;-80
2022/02/24 22:34:23;;;;;;;2.33;1.40;;;7.70;99.90;;;;;;10456724;28;20215;-80
2022/02/24 22:39:26;;;;;;;1.63;1.53;;;7.80;99.90;;;;;;10469925;28;20759;-81
2022/02/24 22:44:29;;;;;;;1.83;1.23;;;7.60;99.90;;;;;;10458696;28;20282;-81
2022/02/24 22:49:31;;;;;;;1.40;1.30;;;7.60;99.90;;;;;;10461657;28;20260;-79
2022/02/24 22:54:34;;;;;;;1.40;1.30;;;7.50;99.90;;;;;;10453039;28;20726;-79
2022/02/24 22:59:37;;;;;;;1.73;1.13;;;7.50;99.90;;;;;;10486843;28;20691;-78
2022/02/24 23:09:59;;;;;;;1.37;1.27;;;7.30;99.90;;;;;;10465366;28;20357;-79
2022/02/24 23:15:03;;;;;;;1.30;1.20;;;7.30;99.90;;;;;;10484096;28;20204;-80
2022/02/24 23:20:06;;;;;;;1.20;1.10;;;7.20;99.90;;;;;;10480567;28;20266;-79
2022/02/24 23:25:09;;;;;;;1.20;1.13;;;7.20;99.90;;;;;;10488391;28;20208;-80
2022/02/24 23:30:13;;;;;;;1.60;1.50;;;7.30;99.90;;;;;;10488758;28;20248;-81
2022/02/24 23:35:16;;;;;;;2.00;1.53;;;7.40;99.90;;;;;;10482836;28;20243;-80
2022/02/24 23:40:18;;;;;;;1.50;1.40;;;7.60;99.90;;;;;;10453322;28;20574;-80
2022/02/24 23:45:22;;;;;;;2.20;1.30;;;7.70;99.90;;;;;;10471559;28;20201;-78
2022/02/24 23:50:24;;;;;;;1.90;1.60;;;7.80;99.90;;;;;;10440886;28;20230;-78
2022/02/24 23:55:26;;;;;;;1.70;1.60;;;7.70;99.90;;;;;;10486977;28;20242;-77
